Time;durP1;ratioP1;P1;durP2;ratioP2;P2;SDS_P1;SDS_P2;PMS_P1;PMS_P2;Temp;Humidity;BMP_temperature;BMP_pressure;BME280_temperature;BME280_humidity;BME280_pressure;Samples;Min_cycle;Max_cycle;Signal;HPM_P1;HPM_P2
2024/01/25 00:01:07;;;;;;;83.45;44.65;;;;;;;1.73;100.00;93565.44;5076135;28;20063;-72
2024/01/25 00:03:34;;;;;;;89.38;52.10;;;;;;;1.87;100.00;93593.75;5068902;28;20044;-72
2024/01/25 00:06:03;;;;;;;97.40;50.38;;;;;;;1.80;100.00;93597.81;5067560;28;20052;-72
2024/01/25 00:08:30;;;;;;;87.30;46.28;;;;;;;1.72;100.00;93593.47;5069414;28;20045;-73
2024/01/25 00:10:57;;;;;;;99.22;50.20;;;;;;;1.84;100.00;93579.63;5070931;28;20533;-72
2024/01/25 00:13:24;;;;;;;199.45;88.72;;;;;;;1.97;100.00;93578.47;5070768;28;20164;-72
2024/01/25 00:15:50;;;;;;;100.68;51.50;;;;;;;2.05;100.00;93565.06;5069405;28;20044;-72
2024/01/25 00:18:17;;;;;;;113.13;56.45;;;;;;;2.15;100.00;93563.22;5069366;28;20052;-72
2024/01/25 00:20:44;;;;;;;101.90;52.33;;;;;;;2.17;100.00;93553.72;5075422;28;20050;-72
2024/01/25 00:23:13;;;;;;;90.05;47.85;;;;;;;2.20;100.00;93532.34;5072882;28;20048;-72
2024/01/25 00:25:40;;;;;;;68.15;39.70;;;;;;;2.28;100.00;93537.47;5070010;28;20041;-72
2024/01/25 00:28:07;;;;;;;63.95;34.38;;;;;;;2.26;100.00;93516.53;5070887;28;20078;-71
2024/01/25 00:30:34;;;;;;;59.30;32.22;;;;;;;2.23;100.00;93516.84;5071781;28;20075;-72
2024/01/25 00:33:01;;;;;;;63.33;34.10;;;;;;;2.28;100.00;93522.28;5069730;28;20041;-72
2024/01/25 00:35:29;;;;;;;72.22;37.92;;;;;;;2.27;100.00;93530.81;5075661;28;20040;-72
2024/01/25 00:37:56;;;;;;;75.03;38.40;;;;;;;2.33;100.00;93535.28;5074524;28;20045;-72
2024/01/25 00:40:25;;;;;;;162.52;65.07;;;;;;;2.44;100.00;93534.22;5071635;28;20044;-72
2024/01/25 00:42:53;;;;;;;82.75;42.03;;;;;;;2.42;100.00;93527.72;5073397;28;20054;-72
2024/01/25 00:45:21;;;;;;;105.38;49.90;;;;;;;2.46;100.00;93521.41;5078971;28;20044;-72
2024/01/25 00:47:49;;;;;;;97.25;46.15;;;;;;;2.44;100.00;93515.69;5069353;28;20044;-72
2024/01/25 00:50:17;;;;;;;69.35;36.70;;;;;;;2.35;100.00;93527.50;5068097;28;20515;-72
2024/01/25 00:52:44;;;;;;;66.78;35.50;;;;;;;2.28;100.00;93519.75;5067228;28;20056;-72
2024/01/25 00:55:12;;;;;;;66.55;35.38;;;;;;;2.36;100.00;93526.59;5072203;28;20538;-71
2024/01/25 00:57:41;;;;;;;70.10;38.75;;;;;;;2.45;100.00;93524.88;5066876;28;20056;-72
2024/01/25 01:00:09;;;;;;;65.25;33.72;;;;;;;2.19;100.00;93534.09;5072735;28;20059;-72
2024/01/25 01:02:40;;;;;;;70.82;37.00;;;;;;;2.30;100.00;93529.72;5069009;28;20048;-72
2024/01/25 01:05:08;;;;;;;63.70;35.70;;;;;;;2.17;100.00;93515.69;5069290;28;22559;-72
2024/01/25 01:07:36;;;;;;;62.90;36.45;;;;;;;2.14;100.00;93526.94;5067372;28;20471;-71
2024/01/25 01:10:03;;;;;;;67.00;35.85;;;;;;;2.14;100.00;93534.53;5069608;28;20052;-71
2024/01/25 01:12:31;;;;;;;69.88;37.00;;;;;;;2.23;100.00;93539.66;5067512;28;20052;-72
2024/01/25 01:14:59;;;;;;;136.63;66.25;;;;;;;2.10;100.00;93535.00;5065098;28;20438;-72
2024/01/25 01:17:27;;;;;;;339.92;168.95;;;;;;;2.02;100.00;93535.75;5066450;28;20062;-72
2024/01/25 01:19:53;;;;;;;73.43;37.63;;;;;;;1.97;100.00;93510.84;5071106;28;20051;-72
2024/01/25 01:22:20;;;;;;;60.55;32.90;;;;;;;2.09;100.00;93508.84;5066083;28;20049;-71
2024/01/25 01:24:47;;;;;;;72.95;39.45;;;;;;;2.11;100.00;93496.84;5067790;28;20052;-71
2024/01/25 01:27:14;;;;;;;74.30;38.80;;;;;;;2.26;100.00;93519.88;5065776;28;20131;-71
2024/01/25 01:29:41;;;;;;;64.97;32.65;;;;;;;2.34;100.00;93519.13;5064695;28;20497;-72
2024/01/25 01:32:10;;;;;;;67.55;31.10;;;;;;;2.45;100.00;93517.28;5068759;28;20424;-72
2024/01/25 01:34:37;;;;;;;66.82;35.53;;;;;;;2.45;100.00;93517.28;5070751;28;20052;-72
2024/01/25 01:37:04;;;;;;;60.70;31.50;;;;;;;2.53;100.00;93515.56;5066798;28;20056;-73
2024/01/25 01:39:31;;;;;;;61.08;31.20;;;;;;;2.53;100.00;93500.34;5074385;28;20131;-72
2024/01/25 01:41:58;;;;;;;58.10;30.42;;;;;;;2.54;100.00;93496.88;5068160;28;20047;-72
2024/01/25 01:44:25;;;;;;;51.75;27.95;;;;;;;2.35;100.00;93497.09;5068796;28;20055;-72
2024/01/25 01:46:52;;;;;;;53.65;26.48;;;;;;;2.49;100.00;93496.53;5074966;28;20059;-72
2024/01/25 01:49:20;;;;;;;49.42;26.95;;;;;;;2.54;100.00;93479.13;5068992;28;20126;-72
2024/01/25 01:51:47;;;;;;;45.83;26.17;;;;;;;2.40;100.00;93493.16;5070745;28;20044;-72
2024/01/25 01:54:14;;;;;;;49.40;27.08;;;;;;;2.18;100.00;93481.81;5072342;28;20240;-72
2024/01/25 01:56:42;;;;;;;54.72;25.88;;;;;;;2.35;100.00;93477.63;5065240;28;20083;-72
2024/01/25 01:59:11;;;;;;;50.58;26.40;;;;;;;2.51;100.00;93469.25;5068363;28;20054;-72
2024/01/25 02:01:38;;;;;;;47.88;25.90;;;;;;;2.56;100.00;93471.34;5069530;28;20040;-72
2024/01/25 02:04:06;;;;;;;49.65;27.08;;;;;;;2.58;100.00;93469.44;5072678;28;20557;-72
2024/01/25 02:06:35;;;;;;;46.05;24.83;;;;;;;2.69;100.00;93470.13;5066620;28;20866;-72
2024/01/25 02:09:02;;;;;;;51.45;28.35;;;;;;;2.64;100.00;93468.84;5071617;28;20048;-72
2024/01/25 02:11:30;;;;;;;52.38;27.58;;;;;;;2.65;100.00;93475.50;5064836;28;20048;-72
2024/01/25 02:13:57;;;;;;;72.88;36.88;;;;;;;2.61;100.00;93453.13;5071991;28;20056;-73
2024/01/25 02:16:24;;;;;;;58.67;31.77;;;;;;;2.70;100.00;93464.91;5069252;28;20048;-72
2024/01/25 02:18:57;;;;;;;68.90;35.80;;;;;;;2.73;100.00;93454.44;5077796;28;20058;-72
2024/01/25 02:21:24;;;;;;;67.07;34.20;;;;;;;2.78;100.00;93451.44;5074723;28;20048;-72
2024/01/25 02:24:01;;;;;;;76.10;38.92;;;;;;;2.75;100.00;93454.28;5078349;28;20048;-72
2024/01/25 02:26:28;;;;;;;67.07;32.38;;;;;;;2.34;100.00;93465.09;5066325;28;20637;-72
2024/01/25 02:28:54;;;;;;;97.28;59.47;;;;;;;2.42;100.00;93456.72;5068275;28;20079;-72
2024/01/25 02:31:21;;;;;;;68.78;38.33;;;;;;;2.47;100.00;93462.94;5064813;28;20051;-72
2024/01/25 02:33:48;;;;;;;59.92;32.35;;;;;;;2.28;100.00;93463.97;5064850;28;20055;-73
2024/01/25 02:36:15;;;;;;;49.10;28.83;;;;;;;2.35;100.00;93471.75;5070446;28;20048;-72
2024/01/25 02:38:42;;;;;;;43.42;24.67;;;;;;;2.24;100.00;93475.34;5065685;28;20052;-73
2024/01/25 02:41:11;;;;;;;44.58;24.73;;;;;;;2.11;100.00;93481.63;5069771;28;20062;-73
2024/01/25 02:43:37;;;;;;;44.13;24.98;;;;;;;1.90;100.00;93468.53;5062861;28;20138;-73
2024/01/25 02:46:05;;;;;;;48.47;25.75;;;;;;;2.10;100.00;93464.03;5073809;28;20048;-73
2024/01/25 02:48:32;;;;;;;50.85;28.20;;;;;;;1.99;100.00;93475.25;5069297;28;20044;-73
2024/01/25 02:50:59;;;;;;;58.53;30.30;;;;;;;1.85;100.00;93469.75;5065390;28;20048;-72
2024/01/25 02:53:26;;;;;;;52.35;30.50;;;;;;;2.04;100.00;93454.50;5067029;28;20048;-72
2024/01/25 02:55:53;;;;;;;54.00;30.25;;;;;;;1.76;100.00;93469.88;5066551;28;20044;-74
2024/01/25 02:58:21;;;;;;;53.45;29.13;;;;;;;1.97;100.00;93439.91;5068119;28;20048;-72
2024/01/25 03:00:48;;;;;;;59.53;30.25;;;;;;;2.02;100.00;93449.59;5064215;28;20376;-72
2024/01/25 03:03:16;;;;;;;73.28;35.75;;;;;;;1.85;100.00;93448.72;5077434;28;20087;-72
2024/01/25 03:05:43;;;;;;;56.40;31.48;;;;;;;1.86;100.00;93445.25;5071358;28;20056;-72
2024/01/25 03:08:10;;;;;;;58.20;33.95;;;;;;;1.84;100.00;93453.00;5069553;28;20055;-73
2024/01/25 03:10:37;;;;;;;56.80;32.58;;;;;;;2.03;100.00;93428.38;5065344;28;20056;-73
2024/01/25 03:13:04;;;;;;;110.53;52.47;;;;;;;2.00;100.00;93457.34;5073220;28;20059;-72
2024/01/25 03:15:32;;;;;;;76.45;39.40;;;;;;;1.79;100.00;93411.31;5070234;28;20059;-72
2024/01/25 03:17:59;;;;;;;65.95;35.40;;;;;;;1.74;100.00;93444.69;5069226;28;20044;-72
2024/01/25 03:20:38;;;;;;;63.10;33.17;;;;;;;1.82;100.00;93419.41;5077394;28;20549;-72
2024/01/25 03:23:05;;;;;;;55.35;31.10;;;;;;;1.82;100.00;93442.22;5068083;28;20489;-72
2024/01/25 03:25:32;;;;;;;59.92;29.85;;;;;;;1.92;100.00;93410.91;5068611;28;20051;-72
2024/01/25 03:28:01;;;;;;;63.90;32.63;;;;;;;2.02;100.00;93425.97;5072087;28;20047;-72
2024/01/25 03:30:27;;;;;;;58.67;31.77;;;;;;;2.06;100.00;93412.88;5067633;28;20052;-72
2024/01/25 03:32:56;;;;;;;66.05;37.00;;;;;;;2.08;100.00;93418.56;5067083;28;20132;-72
2024/01/25 03:35:23;;;;;;;64.35;34.75;;;;;;;2.17;100.00;93405.94;5069296;28;20057;-71
2024/01/25 03:37:50;;;;;;;53.15;31.10;;;;;;;2.25;100.00;93421.16;5068132;28;20724;-72
2024/01/25 03:40:17;;;;;;;57.83;32.65;;;;;;;2.35;100.00;93400.75;5070051;28;20062;-71
2024/01/25 03:42:44;;;;;;;57.15;31.40;;;;;;;2.27;100.00;93391.41;5077430;28;20685;-72
2024/01/25 03:45:10;;;;;;;56.38;31.20;;;;;;;2.46;100.00;93402.22;5077856;28;20036;-72
2024/01/25 03:47:37;;;;;;;61.00;31.60;;;;;;;2.46;100.00;93389.56;5070960;28;20047;-72
2024/01/25 03:50:06;;;;;;;56.65;31.17;;;;;;;2.57;100.00;93365.63;5070443;28;20048;-72
2024/01/25 03:52:33;;;;;;;53.33;30.77;;;;;;;2.53;100.00;93368.50;5067072;28;20045;-72
2024/01/25 03:55:00;;;;;;;49.30;28.80;;;;;;;2.47;100.00;93391.13;5068061;28;20045;-72
2024/01/25 03:57:27;;;;;;;56.90;29.27;;;;;;;2.03;100.00;93367.56;5067724;28;20044;-72
2024/01/25 03:59:54;;;;;;;58.10;31.63;;;;;;;2.13;100.00;93363.16;5070268;28;20496;-72
2024/01/25 04:02:21;;;;;;;59.63;32.13;;;;;;;2.20;100.00;93352.41;5070745;28;20044;-72
2024/01/25 04:04:48;;;;;;;53.90;30.52;;;;;;;2.06;100.00;93367.25;5077374;28;20049;-72
2024/01/25 04:07:16;;;;;;;64.35;34.35;;;;;;;2.30;100.00;93364.97;5075963;28;20044;-73
2024/01/25 04:09:43;;;;;;;54.35;31.55;;;;;;;2.32;100.00;93350.38;5069338;28;20053;-73
2024/01/25 04:12:11;;;;;;;61.67;32.45;;;;;;;2.34;100.00;93341.69;5070533;28;20804;-73
2024/01/25 04:14:37;;;;;;;61.55;33.38;;;;;;;2.45;100.00;93355.78;5071671;28;20052;-73
2024/01/25 04:17:05;;;;;;;51.70;30.40;;;;;;;2.54;100.00;93357.41;5068525;28;20407;-72
2024/01/25 04:19:32;;;;;;;53.13;31.67;;;;;;;2.52;100.00;93339.00;5074124;28;20047;-72
2024/01/25 04:21:58;;;;;;;66.82;35.90;;;;;;;2.44;100.00;93346.59;5075549;28;20041;-73
2024/01/25 04:24:28;;;;;;;74.43;41.15;;;;;;;2.64;100.00;93342.03;5070738;28;20043;-73
2024/01/25 04:27:13;;;;;;;41.28;24.08;;;;;;;2.52;100.00;93346.63;5073058;28;20063;-71
2024/01/25 04:29:41;;;;;;;36.80;23.55;;;;;;;2.51;100.00;93351.84;5073795;28;20045;-72
2024/01/25 04:32:08;;;;;;;40.45;23.50;;;;;;;2.52;100.00;93346.63;5078208;28;20479;-72
2024/01/25 04:34:37;;;;;;;34.38;20.88;;;;;;;2.31;100.00;93303.94;5080963;28;20048;-72
2024/01/25 04:37:04;;;;;;;32.30;18.35;;;;;;;2.50;100.00;93335.81;5075620;28;20059;-72
2024/01/25 04:39:32;;;;;;;30.17;18.92;;;;;;;2.59;100.00;93371.34;5071714;28;20051;-72
2024/01/25 04:41:59;;;;;;;37.38;25.48;;;;;;;2.58;100.00;93380.69;5074676;28;20089;-72
2024/01/25 04:44:26;;;;;;;39.80;23.60;;;;;;;2.55;100.00;93391.16;5082341;28;20074;-72
2024/01/25 04:46:54;;;;;;;55.63;32.33;;;;;;;2.56;100.00;93395.28;5071647;28;20044;-72
2024/01/25 04:49:21;;;;;;;49.22;27.17;;;;;;;1.76;100.00;93409.09;5076093;28;20052;-72
2024/01/25 04:51:48;;;;;;;43.58;27.95;;;;;;;1.77;100.00;93372.69;5073208;28;20064;-72
2024/01/25 04:54:15;;;;;;;47.90;28.20;;;;;;;2.05;100.00;93365.69;5069142;28;20506;-72
2024/01/25 04:56:43;;;;;;;49.58;25.77;;;;;;;1.90;100.00;93372.28;5072285;28;20072;-72
2024/01/25 04:59:11;;;;;;;103.72;45.58;;;;;;;2.12;100.00;93386.13;5078238;28;20051;-72
2024/01/25 05:04:39;;;;;;;56.30;29.92;;;;;;;2.06;100.00;93396.88;5036749;28;20048;-72
2024/01/25 05:07:19;;;;;;;151.98;62.40;;;;;;;2.03;100.00;93377.69;5075071;28;20044;-72
2024/01/25 05:09:46;;;;;;;108.47;54.40;;;;;;;2.37;100.00;93419.94;5071297;28;20618;-72
2024/01/25 05:12:15;;;;;;;92.80;55.00;;;;;;;2.11;100.00;93418.28;5076257;28;20051;-72
2024/01/25 05:14:42;;;;;;;132.70;73.72;;;;;;;2.29;100.00;93419.13;5069736;28;20048;-72
2024/01/25 05:17:09;;;;;;;98.40;55.25;;;;;;;2.34;100.00;93414.38;5072026;28;20048;-72
2024/01/25 05:19:35;;;;;;;81.80;44.05;;;;;;;2.37;100.00;93430.06;5079964;28;20120;-72
2024/01/25 05:22:06;;;;;;;108.07;53.97;;;;;;;2.39;100.00;93432.47;5070600;28;20056;-72
2024/01/25 05:24:33;;;;;;;108.35;56.47;;;;;;;2.37;100.00;93419.16;5068267;28;20052;-72
2024/01/25 05:27:00;;;;;;;91.47;52.30;;;;;;;2.52;100.00;93429.50;5072950;28;20040;-72
2024/01/25 05:29:28;;;;;;;91.93;49.20;;;;;;;2.59;100.00;93432.22;5073376;28;20455;-72
2024/01/25 05:31:55;;;;;;;83.80;40.90;;;;;;;2.62;100.00;93432.69;5070105;28;20051;-72
2024/01/25 05:34:22;;;;;;;56.72;30.48;;;;;;;2.70;100.00;93429.38;5071387;28;20569;-72
2024/01/25 05:36:49;;;;;;;54.60;29.85;;;;;;;2.77;100.00;93440.50;5073339;28;20542;-72
2024/01/25 05:39:16;;;;;;;109.75;41.55;;;;;;;2.74;100.00;93443.31;5066784;28;20044;-72
2024/01/25 05:41:44;;;;;;;58.95;30.05;;;;;;;2.71;100.00;93453.00;5069590;28;20101;-72
2024/01/25 05:44:12;;;;;;;57.38;29.08;;;;;;;2.69;100.00;93443.03;5075195;28;20048;-72
2024/01/25 05:46:40;;;;;;;99.75;41.63;;;;;;;2.62;100.00;93440.31;5075153;28;20056;-72
2024/01/25 05:49:07;;;;;;;209.90;68.57;;;;;;;2.74;100.00;93463.63;5071445;28;20059;-72
2024/01/25 05:51:35;;;;;;;240.40;83.10;;;;;;;2.89;100.00;93468.91;5067373;28;20051;-72
2024/01/25 05:54:03;;;;;;;344.38;111.13;;;;;;;2.84;100.00;93463.50;5071388;28;20098;-72
2024/01/25 05:56:30;;;;;;;404.58;161.05;;;;;;;2.91;100.00;93466.19;5068697;28;20823;-72
2024/01/25 05:58:57;;;;;;;293.23;106.00;;;;;;;2.91;100.00;93456.03;5069288;28;20055;-73
2024/01/25 06:01:24;;;;;;;124.63;53.63;;;;;;;2.90;100.00;93457.00;5079258;28;20052;-72
2024/01/25 06:03:52;;;;;;;101.38;49.83;;;;;;;2.97;100.00;93462.25;5074086;28;20752;-73
2024/01/25 06:06:20;;;;;;;89.15;45.00;;;;;;;2.93;100.00;93461.78;5070088;28;20058;-73
2024/01/25 06:08:47;;;;;;;103.72;49.95;;;;;;;2.91;100.00;93464.47;5069705;28;20055;-73
2024/01/25 06:11:14;;;;;;;283.88;106.97;;;;;;;2.86;100.00;93458.28;5069220;28;20060;-73
2024/01/25 06:13:40;;;;;;;140.40;64.32;;;;;;;2.89;100.00;93463.84;5075653;28;20058;-73
2024/01/25 06:16:08;;;;;;;147.02;66.10;;;;;;;2.93;100.00;93464.31;5068591;28;20059;-73
2024/01/25 06:18:35;;;;;;;67.70;38.10;;;;;;;2.89;100.00;93453.69;5073591;28;20055;-73
2024/01/25 06:21:03;;;;;;;58.78;38.08;;;;;;;2.93;100.00;93470.16;5074753;28;20249;-73
2024/01/25 06:23:30;;;;;;;162.50;69.55;;;;;;;2.89;100.00;93475.72;5070194;28;20052;-73
2024/01/25 06:25:57;;;;;;;76.38;37.78;;;;;;;2.97;100.00;93478.28;5069383;28;20049;-73
2024/01/25 06:28:25;;;;;;;340.55;148.13;;;;;;;2.71;100.00;93485.97;5067224;28;20052;-73
2024/01/25 06:30:52;;;;;;;146.00;67.78;;;;;;;2.87;100.00;93477.63;5068087;28;20090;-73
2024/01/25 06:33:19;;;;;;;292.63;110.88;;;;;;;2.98;100.00;93481.59;5070443;28;20455;-73
2024/01/25 06:36:22;;;;;;;315.45;118.55;;;;;;;3.12;100.00;93459.88;5067120;28;20047;-73
2024/01/25 06:38:49;;;;;;;171.63;77.75;;;;;;;3.11;100.00;93481.16;5049598;28;20048;-73
2024/01/25 06:41:16;;;;;;;201.98;88.97;;;;;;;3.08;100.00;93469.56;5071209;28;20055;-73
2024/01/25 06:43:43;;;;;;;94.63;52.55;;;;;;;3.06;100.00;93471.47;5073157;28;20084;-73
2024/01/25 06:46:10;;;;;;;74.75;43.70;;;;;;;3.07;100.00;93473.06;5074758;28;20052;-72
2024/01/25 06:48:37;;;;;;;155.98;83.32;;;;;;;3.05;100.00;93470.66;5075069;28;20048;-73
2024/01/25 06:51:05;;;;;;;193.90;103.85;;;;;;;3.11;100.00;93469.25;5070070;28;20049;-72
2024/01/25 06:53:32;;;;;;;124.72;71.82;;;;;;;3.13;100.00;93456.38;5072448;28;20563;-73
2024/01/25 06:55:59;;;;;;;118.50;67.20;;;;;;;3.19;100.00;93463.38;5071221;28;20058;-72
2024/01/25 06:58:26;;;;;;;209.40;102.60;;;;;;;3.30;100.00;93477.50;5069253;28;20048;-72
2024/01/25 07:00:53;;;;;;;249.07;129.10;;;;;;;3.29;100.00;93468.31;5066798;28;20768;-73
2024/01/25 07:03:20;;;;;;;271.05;138.27;;;;;;;3.36;100.00;93468.47;5071556;28;20051;-73
2024/01/25 07:05:47;;;;;;;87.18;49.65;;;;;;;3.44;100.00;93471.00;5067732;28;20076;-73
2024/01/25 07:08:15;;;;;;;64.32;40.10;;;;;;;3.45;100.00;93467.50;5071225;28;20055;-73
2024/01/25 07:10:43;;;;;;;49.53;31.50;;;;;;;3.48;100.00;93472.28;5068353;28;20048;-73
2024/01/25 07:13:10;;;;;;;83.03;55.53;;;;;;;3.41;100.00;93468.78;5067492;28;20063;-73
2024/01/25 07:15:37;;;;;;;94.93;58.15;;;;;;;3.40;100.00;93457.84;5067554;28;20083;-74
2024/01/25 07:18:04;;;;;;;77.90;50.55;;;;;;;3.43;100.00;93465.13;5069217;28;20052;-73
2024/01/25 07:20:31;;;;;;;55.35;35.85;;;;;;;3.45;100.00;93487.84;5070327;28;20527;-73
2024/01/25 07:22:58;;;;;;;56.47;36.40;;;;;;;3.47;100.00;93479.09;5074647;28;20048;-73
2024/01/25 07:25:26;;;;;;;60.38;37.85;;;;;;;3.52;100.00;93463.38;5067749;28;20086;-72
2024/01/25 07:27:53;;;;;;;52.00;33.90;;;;;;;3.55;100.00;93467.34;5071150;28;20554;-73
2024/01/25 07:30:20;;;;;;;47.10;29.55;;;;;;;3.64;100.00;93470.66;5076356;28;20056;-73
2024/01/25 07:32:47;;;;;;;62.95;39.08;;;;;;;3.69;100.00;93476.88;5067602;28;20152;-73
2024/01/25 07:35:14;;;;;;;93.85;59.80;;;;;;;3.58;100.00;93475.47;5070835;28;20053;-73
2024/01/25 07:37:41;;;;;;;87.25;54.92;;;;;;;3.65;100.00;93477.38;5068571;28;20048;-73
2024/01/25 07:40:10;;;;;;;76.85;47.30;;;;;;;3.81;100.00;93469.72;5067028;28;20666;-73
2024/01/25 07:42:38;;;;;;;68.70;42.95;;;;;;;3.90;100.00;93467.97;5066972;28;20053;-73
2024/01/25 07:45:06;;;;;;;64.57;42.05;;;;;;;3.90;100.00;93472.22;5069507;28;20051;-73
2024/01/25 07:47:33;;;;;;;89.05;53.03;;;;;;;3.97;100.00;93485.88;5074943;28;20051;-73
2024/01/25 07:50:00;;;;;;;78.13;53.42;;;;;;;4.07;100.00;93478.09;5070902;28;20062;-73
2024/01/25 07:52:30;;;;;;;91.28;59.38;;;;;;;4.23;100.00;93478.03;5066501;28;20052;-73
2024/01/25 07:54:57;;;;;;;88.45;61.95;;;;;;;4.27;100.00;93470.88;5080094;28;20055;-73
2024/01/25 07:57:23;;;;;;;92.20;59.90;;;;;;;4.20;100.00;93464.84;5072553;28;20170;-73
2024/01/25 07:59:52;;;;;;;92.95;56.65;;;;;;;4.35;100.00;93478.47;5070256;28;20044;-72
2024/01/25 08:02:19;;;;;;;88.13;54.08;;;;;;;4.45;100.00;93470.66;5069671;28;20052;-72
2024/01/25 08:04:46;;;;;;;118.20;73.38;;;;;;;4.47;100.00;93476.38;5072356;28;20040;-72
2024/01/25 08:07:13;;;;;;;111.35;72.65;;;;;;;4.64;100.00;93469.44;5071583;28;20051;-72
2024/01/25 08:09:39;;;;;;;104.20;72.82;;;;;;;4.79;100.00;93468.75;5074767;28;20044;-72
2024/01/25 08:12:07;;;;;;;101.78;59.08;;;;;;;4.84;100.00;93458.06;5074431;28;20052;-72
2024/01/25 08:14:34;;;;;;;96.13;50.40;;;;;;;4.81;100.00;93466.81;5070883;28;20050;-72
2024/01/25 08:17:02;;;;;;;68.40;40.17;;;;;;;4.82;100.00;93469.19;5071523;28;20066;-72
2024/01/25 08:19:29;;;;;;;47.88;29.30;;;;;;;4.80;100.00;93476.22;5073380;28;20474;-72
2024/01/25 08:21:56;;;;;;;32.10;17.27;;;;;;;4.74;100.00;93483.72;5074812;28;20052;-72
2024/01/25 08:24:22;;;;;;;26.42;15.75;;;;;;;4.69;100.00;93479.13;5070864;28;20043;-73
2024/01/25 08:26:49;;;;;;;27.83;15.30;;;;;;;4.64;100.00;93476.28;5071253;28;20044;-73
2024/01/25 08:29:16;;;;;;;11.25;6.55;;;;;;;4.64;98.41;93477.06;5071076;28;20552;-73
2024/01/25 08:31:43;;;;;;;12.80;6.50;;;;;;;4.68;96.85;93482.66;5078486;28;20512;-73
2024/01/25 08:34:11;;;;;;;13.82;7.95;;;;;;;4.82;95.49;93493.88;5073279;28;20048;-73
2024/01/25 08:36:38;;;;;;;18.63;10.77;;;;;;;4.79;95.95;93495.00;5074343;28;20048;-72
2024/01/25 08:39:05;;;;;;;14.93;7.00;;;;;;;4.88;94.84;93510.22;5071365;28;20058;-73
2024/01/25 08:41:32;;;;;;;15.77;7.30;;;;;;;4.96;91.42;93502.56;5070313;28;20044;-73
2024/01/25 08:43:59;;;;;;;16.50;7.47;;;;;;;5.01;91.17;93510.47;5076013;28;20040;-73
2024/01/25 08:46:26;;;;;;;56.42;47.25;;;;;;;5.03;90.85;93507.75;5077163;28;20420;-73
2024/01/25 08:48:53;;;;;;;83.78;76.07;;;;;;;5.17;86.61;93514.69;5071575;28;20041;-73
2024/01/25 08:51:21;;;;;;;13.02;7.63;;;;;;;5.31;87.23;93502.97;5069243;28;20765;-73
2024/01/25 08:53:50;;;;;;;14.57;8.57;;;;;;;5.23;88.49;93505.56;5079971;28;20043;-73
2024/01/25 08:56:17;;;;;;;39.30;29.30;;;;;;;5.31;88.82;93510.63;5074836;28;20044;-72
2024/01/25 08:58:44;;;;;;;28.60;19.08;;;;;;;5.33;89.76;93503.59;5074431;28;20045;-72
2024/01/25 09:01:11;;;;;;;18.23;12.38;;;;;;;5.27;88.14;93508.59;5078467;28;20103;-73
2024/01/25 09:03:38;;;;;;;12.77;7.30;;;;;;;5.26;87.71;93514.63;5076737;28;20357;-72
2024/01/25 09:06:05;;;;;;;27.88;16.02;;;;;;;5.31;89.28;93502.97;5070501;28;20571;-73
2024/01/25 09:08:34;;;;;;;33.95;20.42;;;;;;;5.52;91.62;93493.91;5070225;28;20084;-72
2024/01/25 09:11:01;;;;;;;31.77;19.83;;;;;;;5.46;92.48;93497.94;5073027;28;20092;-72
2024/01/25 09:13:28;;;;;;;62.55;28.35;;;;;;;5.52;92.42;93495.66;5070162;28;20496;-72
2024/01/25 09:15:55;;;;;;;56.38;26.48;;;;;;;5.49;91.50;93478.97;5070147;28;20054;-72
2024/01/25 09:18:21;;;;;;;116.70;48.17;;;;;;;5.64;90.25;93501.16;5079141;28;20048;-72
2024/01/25 09:20:48;;;;;;;89.05;38.90;;;;;;;5.56;89.90;93497.69;5070013;28;20048;-72
2024/01/25 09:23:16;;;;;;;79.05;36.22;;;;;;;5.46;89.70;93495.38;5069178;28;20423;-72
2024/01/25 09:25:46;;;;;;;77.40;35.63;;;;;;;5.58;89.62;93494.97;5069914;28;20048;-72
2024/01/25 09:28:13;;;;;;;62.92;30.63;;;;;;;5.55;91.15;93498.66;5076727;28;20551;-72
2024/01/25 09:30:40;;;;;;;51.85;27.10;;;;;;;5.60;91.04;93483.66;5074546;28;20036;-72
2024/01/25 09:33:07;;;;;;;59.17;29.13;;;;;;;5.65;90.35;93493.31;5069071;28;20044;-72
2024/01/25 09:35:34;;;;;;;45.47;23.48;;;;;;;5.68;89.73;93481.97;5073061;28;20044;-72
2024/01/25 09:38:02;;;;;;;37.67;18.63;;;;;;;5.44;90.13;93476.94;5071596;28;20048;-72
2024/01/25 09:40:28;;;;;;;23.00;13.05;;;;;;;5.58;85.62;93472.84;5068828;28;20045;-72
2024/01/25 09:42:57;;;;;;;25.92;15.68;;;;;;;5.84;83.59;93470.88;5074833;28;20048;-72
2024/01/25 09:45:25;;;;;;;20.17;9.95;;;;;;;6.01;82.60;93467.19;5070615;28;20468;-71
2024/01/25 09:47:52;;;;;;;21.58;11.82;;;;;;;6.08;81.47;93459.66;5068527;28;20319;-72
2024/01/25 09:50:19;;;;;;;19.75;12.35;;;;;;;5.96;85.12;93458.47;5072258;28;20080;-72
2024/01/25 09:52:51;;;;;;;19.95;10.80;;;;;;;6.06;82.36;93453.16;5069251;28;20171;-72
2024/01/25 09:55:20;;;;;;;21.15;12.07;;;;;;;5.94;83.88;93457.84;5072404;28;20052;-72
2024/01/25 09:57:50;;;;;;;20.05;10.13;;;;;;;5.74;85.44;93443.84;5068343;28;20386;-72
2024/01/25 10:00:20;;;;;;;33.67;13.82;;;;;;;5.97;86.09;93440.44;5070099;28;20139;-71
2024/01/25 10:02:48;;;;;;;61.20;31.95;;;;;;;6.00;86.80;93431.66;5070415;28;20074;-72
2024/01/25 10:05:15;;;;;;;38.22;19.08;;;;;;;5.85;87.23;93432.47;5069514;28;20054;-72
2024/01/25 10:07:43;;;;;;;51.67;24.45;;;;;;;5.95;85.79;93427.09;5072138;28;20489;-72
2024/01/25 10:10:11;;;;;;;47.22;24.48;;;;;;;5.97;85.26;93424.38;5067263;28;20502;-72
2024/01/25 10:12:39;;;;;;;35.13;17.75;;;;;;;5.83;86.82;93408.88;5074649;28;20048;-72
2024/01/25 10:15:07;;;;;;;50.20;22.25;;;;;;;5.85;87.44;93417.16;5071137;28;20041;-72
2024/01/25 10:17:35;;;;;;;23.50;10.48;;;;;;;5.99;83.96;93419.88;5069277;28;20062;-72
2024/01/25 10:20:03;;;;;;;15.18;6.55;;;;;;;6.04;83.03;93419.38;5067872;28;20056;-72
2024/01/25 10:22:29;;;;;;;14.65;6.18;;;;;;;5.99;83.47;93415.59;5071888;28;20063;-72
2024/01/25 10:24:56;;;;;;;16.80;6.82;;;;;;;5.99;84.61;93419.88;5069427;28;20491;-72
2024/01/25 10:27:23;;;;;;;17.02;6.57;;;;;;;5.92;84.27;93417.22;5071942;28;20372;-72
2024/01/25 10:29:51;;;;;;;16.75;6.85;;;;;;;5.91;84.49;93412.31;5078864;28;20052;-72
2024/01/25 10:32:18;;;;;;;16.40;6.03;;;;;;;5.91;84.61;93423.31;5077874;28;20056;-72
2024/01/25 10:34:47;;;;;;;15.73;6.82;;;;;;;5.87;84.03;93420.31;5070790;28;20356;-72
2024/01/25 10:37:15;;;;;;;18.05;8.02;;;;;;;5.84;84.01;93427.53;5071137;28;20074;-72
2024/01/25 10:39:43;;;;;;;22.45;10.15;;;;;;;6.00;81.66;93429.91;5081292;28;20051;-72
2024/01/25 10:42:10;;;;;;;13.20;4.53;;;;;;;6.02;79.89;93427.19;5077214;28;20048;-72
2024/01/25 10:44:37;;;;;;;10.00;3.92;;;;;;;5.85;82.43;93418.91;5072126;28;20048;-72
2024/01/25 10:47:06;;;;;;;11.57;4.47;;;;;;;5.79;80.01;93410.19;5067139;28;20045;-72
2024/01/25 10:49:33;;;;;;;24.98;11.00;;;;;;;5.85;82.17;93417.16;5071040;28;20044;-71
2024/01/25 10:52:02;;;;;;;36.15;21.70;;;;;;;5.91;81.33;93412.31;5068110;28;20036;-72
2024/01/25 10:54:30;;;;;;;25.30;11.93;;;;;;;5.99;80.24;93405.38;5068499;28;20487;-72
2024/01/25 10:56:59;;;;;;;17.33;7.28;;;;;;;6.00;80.48;93395.97;5077873;28;20058;-71
2024/01/25 10:59:27;;;;;;;16.33;7.45;;;;;;;5.99;78.64;93405.38;5067861;28;20044;-72
2024/01/25 11:01:55;;;;;;;32.92;15.23;;;;;;;6.07;80.46;93398.63;5070306;28;20067;-72
2024/01/25 11:04:22;;;;;;;23.88;10.60;;;;;;;5.89;81.58;93374.25;5071341;28;20044;-72
2024/01/25 11:06:49;;;;;;;24.60;9.38;;;;;;;6.05;80.07;93391.16;5076167;28;20040;-72
2024/01/25 11:09:20;;;;;;;19.55;9.52;;;;;;;6.11;81.20;93389.66;5069777;28;20051;-73
2024/01/25 11:11:48;;;;;;;22.55;10.00;;;;;;;5.89;82.84;93380.13;5072570;28;20080;-72
2024/01/25 11:14:16;;;;;;;22.40;9.93;;;;;;;5.86;82.11;93374.59;5068492;28;20047;-72
2024/01/25 11:16:46;;;;;;;113.63;37.38;;;;;;;5.98;85.13;93364.75;5071415;28;20049;-73
2024/01/25 11:19:18;;;;;;;49.97;20.50;;;;;;;6.02;82.66;93368.53;5068571;28;20054;-72
2024/01/25 11:21:46;;;;;;;92.38;30.00;;;;;;;5.81;83.83;93364.13;5066801;28;20052;-72
2024/01/25 11:24:14;;;;;;;23.55;8.10;;;;;;;5.72;82.48;93373.63;5070549;28;20052;-72